Time;durP1;ratioP1;P1;durP2;ratioP2;P2;SDS_P1;SDS_P2;PMS_P1;PMS_P2;Temp;Humidity;BMP_temperature;BMP_pressure;BME280_temperature;BME280_humidity;BME280_pressure;Samples;Min_cycle;Max_cycle;Signal;HPM_P1;HPM_P2
2022/11/15 00:01:44;;;;;;;27.42;13.40;;;4.30;99.90;;;;;;5048227;28;19915;-77
2022/11/15 00:04:10;;;;;;;;;;;4.20;99.90;;;;;;5031185;28;20025;-77
2022/11/15 00:06:36;;;;;;;21.35;11.95;;;4.20;99.90;;;;;;5030545;28;19955;-77
2022/11/15 00:09:02;;;;;;;22.42;11.40;;;4.20;99.90;;;;;;5031174;28;20022;-77
2022/11/15 00:11:27;;;;;;;;;;;4.10;99.90;;;;;;5030930;28;20045;-77
2022/11/15 00:13:57;;;;;;;28.98;13.07;;;4.10;99.90;;;;;;5030877;28;20000;-77
2022/11/15 00:16:24;;;;;;;22.52;12.23;;;4.00;99.90;;;;;;5049412;28;20091;-77
2022/11/15 00:18:50;;;;;;;31.63;16.80;;;4.00;99.90;;;;;;5031395;28;20482;-77
2022/11/15 00:21:17;;;;;;;27.38;16.50;;;3.90;99.90;;;;;;5032056;28;20032;-77
2022/11/15 00:23:42;;;;;;;27.55;16.50;;;3.80;99.90;;;;;;5031625;28;20108;-77
2022/11/15 00:26:12;;;;;;;;;;;3.70;99.90;;;;;;5050643;28;20088;-77
2022/11/15 00:28:38;;;;;;;41.80;25.67;;;3.60;99.90;;;;;;5048380;28;19980;-77
2022/11/15 00:31:05;;;;;;;;;;;3.50;99.90;;;;;;5033471;28;20143;-77
2022/11/15 00:33:31;;;;;;;31.17;18.30;;;3.50;99.90;;;;;;5032709;28;19917;-77
2022/11/15 00:36:02;;;;;;;34.28;19.45;;;3.50;99.90;;;;;;5032298;28;20035;-77
2022/11/15 00:38:33;;;;;;;32.92;18.80;;;3.50;99.90;;;;;;5032639;28;20029;-77
2022/11/15 00:40:59;;;;;;;27.63;16.77;;;3.60;99.90;;;;;;5050399;28;20029;-77
2022/11/15 00:43:25;;;;;;;26.42;15.15;;;3.80;99.90;;;;;;5032411;28;20021;-76
2022/11/15 00:45:51;;;;;;;;;;;4.00;99.90;;;;;;5050575;28;20028;-76
2022/11/15 00:48:16;;;;;;;22.73;13.00;;;4.30;99.90;;;;;;5033308;28;19948;-77
2022/11/15 00:50:42;;;;;;;;;;;4.50;99.90;;;;;;5033131;28;20040;-76
2022/11/15 00:53:08;;;;;;;16.83;10.65;;;4.60;99.90;;;;;;5051117;28;20309;-76
2022/11/15 00:55:33;;;;;;;;;;;4.60;99.90;;;;;;5052479;28;20025;-76
2022/11/15 00:57:59;;;;;;;25.58;14.70;;;4.70;99.90;;;;;;5050294;28;19994;-77
2022/11/15 01:00:24;;;;;;;;;;;4.60;99.90;;;;;;5030000;28;20025;-76
2022/11/15 01:02:50;;;;;;;28.02;16.20;;;4.40;99.90;;;;;;5048826;28;19912;-77
2022/11/15 01:05:16;;;;;;;;;;;4.20;99.90;;;;;;5033003;28;20240;-77
2022/11/15 01:07:41;;;;;;;45.25;23.73;;;4.10;99.90;;;;;;5033017;28;19944;-77
2022/11/15 01:10:07;;;;;;;;;;;4.10;99.90;;;;;;5033184;28;20035;-77
2022/11/15 01:12:33;;;;;;;34.53;18.35;;;4.10;99.90;;;;;;5050050;28;19935;-77
2022/11/15 01:14:58;;;;;;;;;;;4.10;99.90;;;;;;5032541;28;20066;-77
2022/11/15 01:17:24;;;;;;;27.13;16.88;;;4.20;99.90;;;;;;5032446;28;19905;-76
2022/11/15 01:19:49;;;;;;;;;;;4.10;99.90;;;;;;5033030;28;20094;-77
2022/11/15 01:22:15;;;;;;;26.08;15.73;;;4.20;99.90;;;;;;5049705;28;19954;-77
2022/11/15 01:24:41;;;;;;;;;;;4.20;99.90;;;;;;5050450;28;20492;-77
2022/11/15 01:27:07;;;;;;;24.63;14.18;;;4.20;99.90;;;;;;5031380;28;19915;-77
2022/11/15 01:29:32;;;;;;;;;;;4.20;99.90;;;;;;5032472;28;20125;-77
2022/11/15 01:31:58;;;;;;;26.50;16.10;;;4.10;99.90;;;;;;5031549;28;19970;-77
2022/11/15 01:34:23;;;;;;;;;;;4.10;99.90;;;;;;5032007;28;20548;-78
2022/11/15 01:36:49;;;;;;;30.02;13.88;;;4.20;99.90;;;;;;5049520;28;19909;-77
2022/11/15 01:39:15;;;;;;;;;;;4.20;99.90;;;;;;5032325;28;20667;-77
2022/11/15 01:41:41;;;;;;;19.30;12.35;;;4.30;99.90;;;;;;5031051;28;19912;-77
2022/11/15 01:44:25;;;;;;;;;;;4.40;99.90;;;;;;5032614;28;20058;-76
2022/11/15 01:46:51;;;;;;;21.67;13.73;;;4.50;99.90;;;;;;5049951;28;19978;-77
2022/11/15 01:49:18;;;;;;;;;;;4.60;99.90;;;;;;5049201;28;20025;-77
2022/11/15 01:51:44;;;;;;;;;;;4.70;99.90;;;;;;5032352;28;20289;-78
2022/11/15 01:54:14;;;;;;;15.93;10.10;;;4.70;99.90;;;;;;5031720;28;19955;-77
2022/11/15 01:57:07;;;;;;;14.40;9.30;;;4.80;99.90;;;;;;5031934;28;20045;-77
2022/11/15 01:59:33;;;;;;;20.50;12.25;;;4.80;99.90;;;;;;5031728;28;20029;-76
2022/11/15 02:01:59;;;;;;;;;;;4.70;99.90;;;;;;5050057;28;20035;-77
2022/11/15 02:04:28;;;;;;;17.98;10.98;;;4.80;99.90;;;;;;5031663;28;19920;-77
2022/11/15 02:06:53;;;;;;;17.13;11.27;;;4.60;99.90;;;;;;5050128;28;20033;-77
2022/11/15 02:09:19;;;;;;;;;;;4.60;99.90;;;;;;5049926;28;20524;-77
2022/11/15 02:11:46;;;;;;;24.15;15.40;;;4.60;99.90;;;;;;5049454;28;20408;-77
2022/11/15 02:14:14;;;;;;;24.00;14.98;;;4.50;99.90;;;;;;5048695;28;20075;-77
2022/11/15 02:17:02;;;;;;;24.77;15.70;;;4.40;99.90;;;;;;5050003;28;20028;-77
2022/11/15 02:19:54;;;;;;;27.60;16.55;;;4.30;99.90;;;;;;5049978;28;20025;-79
2022/11/15 02:23:01;;;;;;;29.13;16.02;;;4.30;99.90;;;;;;5024249;28;20049;-77
2022/11/15 02:25:40;;;;;;;24.30;15.20;;;4.20;99.90;;;;;;5029839;28;20421;-77
2022/11/15 02:28:22;;;;;;;33.05;17.10;;;4.20;99.90;;;;;;5040721;28;20059;-77
2022/11/15 02:30:59;;;;;;;26.70;17.52;;;4.10;99.90;;;;;;5068977;28;20043;-77
2022/11/15 02:33:43;;;;;;;29.65;18.95;;;4.10;99.90;;;;;;5070717;28;20025;-76
2022/11/15 02:36:23;;;;;;;31.85;18.65;;;4.00;99.90;;;;;;5070442;28;20024;-77
2022/11/15 02:38:59;;;;;;;25.38;15.88;;;4.00;99.90;;;;;;5069922;28;20033;-77
2022/11/15 02:41:28;;;;;;;;;;;4.00;99.90;;;;;;5053375;28;20458;-77
2022/11/15 02:44:04;;;;;;;31.48;18.85;;;4.00;99.90;;;;;;5052686;28;20429;-77
2022/11/15 02:49:18;;;;;;;28.42;17.70;;;4.10;99.90;;;;;;5071424;28;20411;-77
2022/11/15 02:51:46;;;;;;;26.92;17.55;;;4.00;99.90;;;;;;5071290;28;20140;-77
2022/11/15 02:54:28;;;;;;;33.35;18.48;;;4.00;99.90;;;;;;5053446;28;20030;-77
2022/11/15 02:57:00;;;;;;;31.52;16.83;;;4.00;99.90;;;;;;5053420;28;20030;-78
2022/11/15 02:59:50;;;;;;;27.77;15.68;;;4.10;99.90;;;;;;5052241;28;20035;-77
2022/11/15 03:02:37;;;;;;;25.20;15.45;;;4.10;99.90;;;;;;5053244;28;20480;-77
2022/11/15 03:05:17;;;;;;;26.80;17.13;;;4.10;99.90;;;;;;5052538;28;20032;-76
2022/11/15 03:08:04;;;;;;;29.35;17.90;;;4.20;99.90;;;;;;5053325;28;20021;-77
2022/11/15 03:10:37;;;;;;;36.23;18.80;;;4.30;99.90;;;;;;5065434;28;20066;-77
2022/11/15 03:13:32;;;;;;;30.92;17.80;;;4.30;99.90;;;;;;5052986;28;20787;-77
2022/11/15 03:16:30;;;;;;;27.52;16.45;;;4.40;99.90;;;;;;5062973;28;20501;-77
2022/11/15 03:19:09;;;;;;;52.25;26.38;;;4.50;99.90;;;;;;5049405;28;20149;-76
2022/11/15 03:21:39;;;;;;;82.68;37.75;;;4.50;99.90;;;;;;5049845;28;20059;-77
2022/11/15 03:24:07;;;;;;;62.58;30.10;;;4.60;99.90;;;;;;5067145;28;20024;-76
2022/11/15 03:26:36;;;;;;;74.40;31.55;;;4.60;99.90;;;;;;5066210;28;20032;-76
2022/11/15 03:29:27;;;;;;;37.00;20.10;;;4.60;99.90;;;;;;5048783;28;20414;-76
2022/11/15 03:32:07;;;;;;;23.05;12.50;;;4.80;99.90;;;;;;5048623;28;20032;-77
2022/11/15 03:34:36;;;;;;;22.95;12.50;;;5.10;99.90;;;;;;5048993;28;20024;-77
2022/11/15 03:37:01;;;;;;;20.58;11.77;;;5.40;99.90;;;;;;5066762;28;20024;-76
2022/11/15 03:39:27;;;;;;;;;;;5.50;99.90;;;;;;5067347;28;20039;-77
2022/11/15 03:42:17;;;;;;;32.90;16.42;;;5.60;99.90;;;;;;5049795;28;19911;-76
2022/11/15 03:45:05;;;;;;;26.88;15.30;;;5.60;99.90;;;;;;5049365;28;20759;-76
2022/11/15 03:48:06;;;;;;;22.70;13.45;;;5.50;99.90;;;;;;5049063;28;20471;-77
2022/11/15 03:50:32;;;;;;;20.48;12.90;;;5.50;99.90;;;;;;5055135;28;20037;-76
2022/11/15 03:52:58;;;;;;;;;;;5.40;99.90;;;;;;5049497;28;20221;-76
2022/11/15 03:55:24;;;;;;;22.02;12.60;;;5.30;99.90;;;;;;5049295;28;19908;-77
2022/11/15 03:57:53;;;;;;;;;;;5.30;99.90;;;;;;5067845;28;20025;-76
2022/11/15 04:00:19;;;;;;;21.25;11.82;;;5.20;99.90;;;;;;5049871;28;19912;-76
2022/11/15 04:02:44;;;;;;;;;;;5.20;99.90;;;;;;5049964;28;20085;-76
2022/11/15 04:05:10;;;;;;;19.20;10.88;;;5.20;99.90;;;;;;5067287;28;19909;-76
2022/11/15 04:07:35;;;;;;;;;;;5.20;99.90;;;;;;5049362;28;20028;-77
2022/11/15 04:10:01;;;;;;;20.20;11.07;;;5.20;99.90;;;;;;5049674;28;19931;-77
2022/11/15 04:12:31;;;;;;;18.75;11.80;;;5.10;99.90;;;;;;5049030;28;20040;-76
2022/11/15 04:15:09;;;;;;;21.33;11.82;;;5.10;99.90;;;;;;5049202;28;20024;-76
2022/11/15 04:17:39;;;;;;;20.35;11.48;;;5.10;99.90;;;;;;5067737;28;20028;-77
2022/11/15 04:25:42;;;;;;;23.40;12.57;;;5.00;99.90;;;;;;5067327;28;20047;-77
2022/11/15 04:28:08;;;;;;;19.73;11.75;;;5.00;99.90;;;;;;5049471;28;20253;-77
2022/11/15 04:30:33;;;;;;;;;;;5.00;99.90;;;;;;5049743;28;20489;-76
2022/11/15 04:32:59;;;;;;;28.38;16.95;;;5.00;99.90;;;;;;5049108;28;19908;-76
2022/11/15 04:35:25;;;;;;;;;;;5.00;99.90;;;;;;5050596;28;20021;-77
2022/11/15 04:37:50;;;;;;;25.38;15.18;;;5.10;99.90;;;;;;5068424;28;19905;-76
2022/11/15 04:40:16;;;;;;;;;;;5.10;99.90;;;;;;5053753;28;20021;-76
2022/11/15 04:42:45;;;;;;;19.45;12.60;;;5.10;99.90;;;;;;5053592;28;19908;-77
2022/11/15 04:45:11;;;;;;;20.88;12.27;;;5.20;99.90;;;;;;5053673;28;20025;-76
2022/11/15 04:47:36;;;;;;;;;;;5.10;99.90;;;;;;5054141;28;20111;-76
2022/11/15 04:50:02;;;;;;;20.17;11.98;;;5.00;99.90;;;;;;5053835;28;20357;-77
2022/11/15 04:52:28;;;;;;;;;;;5.10;99.90;;;;;;5053386;28;20414;-77
2022/11/15 04:54:53;;;;;;;19.10;12.05;;;5.00;99.90;;;;;;5071088;28;19912;-77
2022/11/15 04:57:19;;;;;;;;;;;5.00;99.90;;;;;;5053200;28;20036;-76
2022/11/15 04:59:44;;;;;;;21.00;11.40;;;5.00;99.90;;;;;;5051327;28;19908;-76
2022/11/15 05:02:10;;;;;;;;;;;5.00;99.90;;;;;;5053562;28;20265;-77
2022/11/15 05:04:35;;;;;;;20.52;11.73;;;5.00;99.90;;;;;;5053267;28;19911;-77
2022/11/15 05:07:01;;;;;;;;;;;5.00;99.90;;;;;;5054267;28;20180;-76
2022/11/15 05:09:27;;;;;;;23.73;12.32;;;5.00;99.90;;;;;;5071099;28;20422;-77
2022/11/15 05:11:53;;;;;;;;;;;5.10;99.90;;;;;;5072017;28;20036;-77
2022/11/15 05:14:18;;;;;;;20.38;11.43;;;5.10;99.90;;;;;;5071614;28;19904;-77
2022/11/15 05:16:44;;;;;;;;;;;5.10;99.90;;;;;;5054055;28;20606;-77
2022/11/15 05:19:09;;;;;;;25.20;13.07;;;5.10;99.90;;;;;;5071102;28;19911;-76
2022/11/15 05:21:35;;;;;;;;;;;5.10;99.90;;;;;;5071764;28;20064;-76
2022/11/15 05:24:01;;;;;;;34.15;20.02;;;5.20;99.90;;;;;;5053294;28;19908;-77
2022/11/15 05:26:27;;;;;;;38.05;23.00;;;5.30;99.90;;;;;;5072005;28;20039;-77
2022/11/15 05:28:54;;;;;;;;;;;5.60;99.90;;;;;;5053961;28;20057;-76
2022/11/15 05:31:19;;;;;;;57.17;31.67;;;6.00;99.90;;;;;;5053820;28;20384;-77
2022/11/15 05:33:45;;;;;;;;;;;6.30;99.90;;;;;;5054787;28;20033;-76
2022/11/15 05:36:32;;;;;;;46.17;30.73;;;6.50;99.90;;;;;;5054380;28;20049;-77
2022/11/15 05:38:58;;;;;;;47.00;31.52;;;6.70;99.90;;;;;;5053265;28;20463;-77
2022/11/15 05:41:29;;;;;;;;;;;6.90;99.90;;;;;;5070989;28;20025;-77
2022/11/15 05:43:55;;;;;;;40.40;25.90;;;6.90;99.90;;;;;;5052249;28;19904;-76
2022/11/15 05:46:21;;;;;;;;;;;7.00;99.90;;;;;;5051816;28;20094;-77
2022/11/15 05:48:50;;;;;;;29.52;18.15;;;6.90;99.90;;;;;;5068864;28;19916;-76
2022/11/15 05:51:17;;;;;;;30.88;19.27;;;6.70;99.90;;;;;;5070295;28;20095;-77
2022/11/15 05:53:44;;;;;;;30.17;16.58;;;6.50;99.90;;;;;;5069283;28;20119;-77
2022/11/15 05:56:10;;;;;;;29.65;17.80;;;6.30;99.90;;;;;;5051863;28;20362;-77
2022/11/15 05:58:36;;;;;;;;;;;6.20;99.90;;;;;;5052322;28;20056;-77
2022/11/15 06:01:02;;;;;;;29.80;18.37;;;6.10;99.90;;;;;;5051737;28;19915;-75
2022/11/15 06:03:28;;;;;;;;;;;6.00;99.90;;;;;;5070522;28;20259;-76
2022/11/15 06:05:53;;;;;;;27.52;16.92;;;6.00;99.90;;;;;;5051829;28;19908;-76
2022/11/15 06:08:19;;;;;;;;;;;6.00;99.90;;;;;;5051137;28;20029;-77
2022/11/15 06:10:44;;;;;;;27.20;17.58;;;5.80;99.90;;;;;;5051119;28;19964;-76
2022/11/15 06:13:10;;;;;;;;;;;5.90;99.90;;;;;;5069499;28;20127;-76
2022/11/15 06:15:35;;;;;;;31.15;16.92;;;5.70;99.90;;;;;;5069034;28;19908;-77
2022/11/15 06:18:01;;;;;;;;;;;5.70;99.90;;;;;;5069026;28;20043;-76
2022/11/15 06:20:28;;;;;;;29.35;18.10;;;5.70;99.90;;;;;;5068307;28;19915;-77
2022/11/15 06:22:59;;;;;;;29.38;17.38;;;5.70;99.90;;;;;;5068899;28;20028;-77
2022/11/15 06:25:24;;;;;;;24.80;16.40;;;5.70;99.90;;;;;;5050765;28;20052;-77
2022/11/15 06:27:57;;;;;;;;;;;5.80;99.90;;;;;;5051925;28;20723;-76
2022/11/15 06:30:23;;;;;;;44.17;24.00;;;5.80;99.90;;;;;;5069925;28;19908;-77
2022/11/15 06:32:49;;;;;;;42.72;26.08;;;5.90;99.90;;;;;;5069326;28;20507;-76
2022/11/15 06:35:15;;;;;;;;;;;6.00;99.90;;;;;;5051314;28;20020;-77
2022/11/15 06:37:41;;;;;;;39.47;24.55;;;6.00;99.90;;;;;;5068948;28;19943;-76
2022/11/15 06:40:08;;;;;;;37.13;23.05;;;6.10;99.90;;;;;;5051115;28;20103;-76
2022/11/15 06:42:34;;;;;;;32.58;20.90;;;6.20;99.90;;;;;;5051521;28;20024;-76
2022/11/15 06:44:59;;;;;;;;;;;6.20;99.90;;;;;;5070461;28;20032;-77
2022/11/15 06:47:25;;;;;;;31.38;19.70;;;6.30;99.90;;;;;;5051423;28;19908;-76
2022/11/15 06:49:50;;;;;;;;;;;6.30;99.90;;;;;;5052184;28;20374;-76
2022/11/15 06:52:18;;;;;;;26.27;15.68;;;6.30;99.90;;;;;;5068939;28;19916;-77
2022/11/15 06:54:43;;;;;;;24.50;16.40;;;6.30;99.90;;;;;;5050914;28;20021;-76
2022/11/15 06:57:09;;;;;;;;;;;6.30;99.90;;;;;;5070241;28;20386;-76
2022/11/15 06:59:35;;;;;;;31.90;18.20;;;6.30;99.90;;;;;;5069295;28;19999;-77
2022/11/15 07:02:00;;;;;;;;;;;6.30;99.90;;;;;;5051721;28;20039;-77
2022/11/15 07:04:26;;;;;;;39.58;26.13;;;6.30;99.90;;;;;;5069434;28;20486;-75
2022/11/15 07:06:51;;;;;;;;;;;6.30;99.90;;;;;;5068221;28;20074;-75
2022/11/15 07:09:17;;;;;;;41.45;27.02;;;6.30;99.90;;;;;;5068261;28;19905;-75
2022/11/15 07:11:42;;;;;;;;;;;6.30;99.90;;;;;;5050727;28;20516;-74
2022/11/15 07:14:08;;;;;;;36.33;22.23;;;6.40;99.90;;;;;;5050401;28;19962;-75
2022/11/15 07:16:33;;;;;;;;;;;6.30;99.90;;;;;;5050367;28;20017;-75
2022/11/15 07:18:59;;;;;;;34.67;20.95;;;6.40;99.90;;;;;;5050715;28;20483;-75
2022/11/15 07:21:24;;;;;;;;;;;6.30;99.90;;;;;;5068376;28;20035;-75
2022/11/15 07:23:50;;;;;;;32.15;20.73;;;6.40;99.90;;;;;;5050840;28;19908;-76
2022/11/15 07:26:16;;;;;;;;;;;6.40;99.90;;;;;;5069133;28;20016;-75
2022/11/15 07:28:42;;;;;;;32.53;21.08;;;6.50;99.90;;;;;;5053682;28;20312;-78
2022/11/15 07:31:08;;;;;;;;;;;6.60;99.90;;;;;;5031377;28;20032;-75
2022/11/15 07:33:34;;;;;;;41.42;25.85;;;6.80;99.90;;;;;;5049127;28;20693;-75
2022/11/15 07:36:05;;;;;;;43.90;27.80;;;7.00;99.90;;;;;;5030036;28;20025;-75
2022/11/15 07:38:31;;;;;;;43.22;25.80;;;7.40;99.90;;;;;;5030984;28;20044;-75
2022/11/15 07:41:01;;;;;;;;;;;7.80;99.90;;;;;;5048826;28;20021;-76
2022/11/15 07:43:28;;;;;;;34.70;20.90;;;8.00;99.90;;;;;;5029618;28;20305;-75
2022/11/15 07:45:53;;;;;;;34.33;23.27;;;8.40;99.90;;;;;;5029876;28;20525;-75
2022/11/15 07:48:19;;;;;;;;;;;8.50;99.90;;;;;;5048094;28;20103;-75
2022/11/15 07:50:45;;;;;;;32.15;19.98;;;8.60;99.90;;;;;;5029755;28;20007;-75
2022/11/15 07:53:10;;;;;;;;;;;8.70;99.90;;;;;;5031434;28;20027;-75
2022/11/15 07:55:37;;;;;;;38.03;24.15;;;8.70;99.90;;;;;;5032438;28;19997;-75
2022/11/15 07:58:06;;;;;;;45.28;26.55;;;8.60;99.90;;;;;;5050600;28;20052;-75
2022/11/15 08:00:33;;;;;;;47.28;25.90;;;8.40;99.90;;;;;;5033022;28;20086;-76
2022/11/15 08:03:25;;;;;;;65.10;33.13;;;8.20;99.90;;;;;;5031049;28;20111;-75
2022/11/15 08:05:51;;;;;;;44.38;27.23;;;8.00;99.90;;;;;;5027931;28;20128;-76
2022/11/15 08:08:17;;;;;;;45.08;24.30;;;7.90;99.90;;;;;;5029739;28;20025;-76
2022/11/15 08:10:43;;;;;;;;;;;7.70;99.90;;;;;;5047677;28;20379;-75
2022/11/15 08:13:10;;;;;;;53.67;28.27;;;7.70;99.90;;;;;;5031306;28;19908;-75
2022/11/15 08:15:37;;;;;;;40.53;25.58;;;7.70;99.90;;;;;;5033636;28;20079;-74
2022/11/15 08:18:05;;;;;;;99.05;61.08;;;7.80;99.90;;;;;;5050821;28;20058;-75
2022/11/15 08:20:32;;;;;;;46.10;32.42;;;8.00;99.90;;;;;;5032417;28;20025;-75
2022/11/15 08:22:59;;;;;;;42.50;30.65;;;8.40;99.90;;;;;;5032834;28;20059;-74
2022/11/15 08:25:28;;;;;;;40.42;24.80;;;8.70;99.90;;;;;;5050253;28;20382;-75
2022/11/15 08:27:59;;;;;;;24.13;17.13;;;9.20;99.90;;;;;;5039546;28;20088;-75
2022/11/15 08:30:25;;;;;;;24.48;17.70;;;9.70;99.90;;;;;;5051919;28;20078;-78
2022/11/15 08:32:52;;;;;;;28.15;17.27;;;10.30;99.90;;;;;;5069559;28;20111;-75
2022/11/15 08:35:18;;;;;;;25.70;16.90;;;10.80;99.90;;;;;;5051354;28;20484;-76
2022/11/15 08:37:44;;;;;;;26.23;17.08;;;11.00;99.90;;;;;;5069417;28;20025;-77
2022/11/15 08:40:10;;;;;;;;;;;11.10;99.90;;;;;;5070557;28;20805;-76
2022/11/15 08:42:36;;;;;;;39.05;19.27;;;11.10;99.90;;;;;;5051481;28;20443;-76
2022/11/15 08:45:02;;;;;;;31.60;19.40;;;10.90;99.90;;;;;;5069863;28;20021;-76
2022/11/15 08:47:28;;;;;;;33.00;19.90;;;10.80;99.90;;;;;;5051868;28;20033;-75
2022/11/15 08:49:53;;;;;;;;;;;10.70;99.90;;;;;;5069923;28;20034;-76
2022/11/15 08:52:19;;;;;;;31.60;19.55;;;10.40;99.90;;;;;;5051230;28;19970;-76
2022/11/15 08:54:44;;;;;;;;;;;10.30;99.90;;;;;;5069981;28;20485;-76
2022/11/15 08:57:10;;;;;;;33.38;21.63;;;10.30;99.90;;;;;;5069254;28;20343;-77
2022/11/15 08:59:36;;;;;;;;;;;10.30;99.90;;;;;;5051517;28;20055;-76
2022/11/15 09:02:02;;;;;;;29.10;19.38;;;10.40;99.90;;;;;;5069495;28;19908;-77
2022/11/15 09:04:27;;;;;;;;;;;10.60;99.90;;;;;;5069567;28;20082;-77
2022/11/15 09:06:53;;;;;;;28.60;17.70;;;10.90;99.90;;;;;;5050905;28;20299;-76
2022/11/15 09:09:18;;;;;;;;;;;11.10;99.90;;;;;;5051763;28;20032;-77
2022/11/15 09:11:44;;;;;;;29.58;17.70;;;11.10;99.90;;;;;;5068842;28;19969;-77
2022/11/15 09:14:13;;;;;;;;;;;11.00;99.90;;;;;;5052260;28;20378;-77
2022/11/15 09:16:39;;;;;;;25.52;18.00;;;10.80;99.90;;;;;;5069311;28;20304;-77
2022/11/15 09:19:04;;;;;;;;;;;10.60;99.90;;;;;;5069505;28;20028;-76
2022/11/15 09:21:30;;;;;;;27.63;17.52;;;10.40;99.90;;;;;;5050732;28;19909;-76
2022/11/15 09:23:56;;;;;;;;;;;10.30;99.90;;;;;;5068943;28;20034;-76
2022/11/15 09:26:22;;;;;;;36.03;23.48;;;10.20;99.90;;;;;;5069514;28;19916;-76
2022/11/15 09:28:47;;;;;;;;;;;10.10;99.90;;;;;;5054165;28;20045;-76
2022/11/15 09:31:13;;;;;;;30.63;19.73;;;10.00;99.90;;;;;;5030803;28;19920;-77
2022/11/15 09:33:39;;;;;;;;;;;10.00;99.90;;;;;;5031738;28;20207;-76
2022/11/15 09:36:07;;;;;;;25.92;19.52;;;10.20;99.90;;;;;;5030658;28;19912;-76
2022/11/15 09:38:33;;;;;;;29.25;19.33;;;10.20;99.90;;;;;;5049614;28;20498;-76
2022/11/15 09:41:13;;;;;;;29.67;21.10;;;10.30;99.90;;;;;;5031953;28;20051;-77
2022/11/15 09:44:01;;;;;;;33.63;21.05;;;10.30;99.90;;;;;;5049542;28;20520;-76
2022/11/15 09:46:55;;;;;;;26.48;18.77;;;10.30;99.90;;;;;;5031367;28;20553;-76
2022/11/15 09:49:22;;;;;;;26.77;18.63;;;10.20;99.90;;;;;;5049016;28;20033;-76
2022/11/15 09:51:50;;;;;;;25.05;18.40;;;10.20;99.90;;;;;;5031564;28;20037;-76
2022/11/15 09:54:37;;;;;;;30.88;17.55;;;10.20;99.90;;;;;;5049106;28;20044;-76
2022/11/15 09:57:18;;;;;;;30.10;19.00;;;10.20;99.90;;;;;;5031222;28;20108;-77
2022/11/15 09:59:54;;;;;;;27.63;18.83;;;10.10;99.90;;;;;;5031307;28;20029;-76
2022/11/15 10:02:38;;;;;;;23.50;16.95;;;10.20;99.90;;;;;;5030728;28;20512;-76
2022/11/15 10:05:07;;;;;;;22.88;16.67;;;10.20;99.90;;;;;;5030698;28;20494;-76
2022/11/15 10:08:01;;;;;;;25.63;15.15;;;10.20;99.90;;;;;;5048780;28;20060;-76
2022/11/15 10:10:38;;;;;;;26.38;17.50;;;10.20;99.90;;;;;;5049334;28;20025;-77
2022/11/15 10:13:07;;;;;;;35.53;23.40;;;10.20;99.90;;;;;;5049365;28;20126;-76
2022/11/15 10:15:34;;;;;;;21.15;14.35;;;10.30;99.90;;;;;;5049115;28;20021;-77
2022/11/15 10:18:08;;;;;;;20.73;14.00;;;10.30;99.90;;;;;;5031631;28;20041;-77
2022/11/15 10:20:51;;;;;;;19.00;13.52;;;10.40;99.90;;;;;;5049989;28;20040;-76
2022/11/15 10:23:20;;;;;;;28.20;13.88;;;10.30;99.90;;;;;;5031387;28;20033;-76
2022/11/15 10:25:46;;;;;;;20.33;14.30;;;10.00;99.90;;;;;;5030042;28;20059;-76
2022/11/15 10:28:12;;;;;;;;;;;10.10;99.90;;;;;;5040872;28;20087;-76
2022/11/15 10:30:40;;;;;;;20.65;14.13;;;10.10;99.90;;;;;;5049723;28;19909;-76
2022/11/15 10:33:18;;;;;;;21.10;14.80;;;10.00;99.90;;;;;;5067791;28;20032;-77
2022/11/15 10:35:44;;;;;;;23.33;15.30;;;10.00;99.90;;;;;;5048494;28;20048;-76
2022/11/15 10:38:10;;;;;;;;;;;10.00;99.90;;;;;;5068039;28;20069;-76
2022/11/15 10:40:38;;;;;;;23.63;15.70;;;10.00;99.90;;;;;;5067476;28;19909;-77
2022/11/15 10:43:16;;;;;;;30.80;18.15;;;10.10;99.90;;;;;;5067742;28;20036;-77
2022/11/15 10:45:42;;;;;;;31.65;20.73;;;10.20;99.90;;;;;;5049745;28;20092;-76
2022/11/15 10:48:14;;;;;;;23.38;16.40;;;10.30;99.90;;;;;;5049393;28;20139;-77
2022/11/15 10:50:40;;;;;;;31.42;18.55;;;10.40;99.90;;;;;;5066685;28;20602;-76
2022/11/15 10:53:23;;;;;;;26.23;18.58;;;10.50;99.90;;;;;;5067403;28;20078;-76
2022/11/15 10:55:52;;;;;;;28.35;17.10;;;10.60;99.90;;;;;;5067187;28;20024;-76
2022/11/15 10:58:34;;;;;;;25.05;19.00;;;10.70;99.90;;;;;;5049302;28;20058;-78
2022/11/15 11:01:18;;;;;;;22.17;13.18;;;10.70;99.90;;;;;;5048947;28;20024;-77
2022/11/15 11:03:45;;;;;;;18.80;12.10;;;10.90;99.90;;;;;;5048151;28;20433;-76
2022/11/15 11:06:17;;;;;;;22.88;12.65;;;11.00;99.90;;;;;;5049352;28;20480;-76
2022/11/15 11:09:02;;;;;;;20.30;12.13;;;11.00;99.90;;;;;;5049039;28;20044;-75
2022/11/15 11:11:46;;;;;;;16.90;11.13;;;10.80;99.90;;;;;;5066740;28;20032;-76
2022/11/15 11:14:31;;;;;;;19.05;11.43;;;10.50;99.90;;;;;;5048822;28;20036;-76
2022/11/15 11:17:11;;;;;;;18.95;11.32;;;10.30;99.90;;;;;;5067006;28;20439;-76
2022/11/15 11:19:37;;;;;;;24.35;13.20;;;10.00;99.90;;;;;;5048512;28;20036;-76
2022/11/15 11:22:12;;;;;;;;;;;9.90;99.90;;;;;;5049016;28;20468;-76
2022/11/15 11:25:03;;;;;;;27.35;15.20;;;9.80;99.90;;;;;;5066791;28;19904;-76
2022/11/15 11:27:42;;;;;;;28.83;16.83;;;9.90;99.90;;;;;;5062700;28;20042;-76
2022/11/15 11:30:08;;;;;;;18.88;11.95;;;10.00;99.90;;;;;;5046836;28;20044;-77
2022/11/15 11:32:37;;;;;;;;;;;10.00;99.90;;;;;;5047503;28;20560;-76
2022/11/15 11:35:17;;;;;;;16.10;10.90;;;9.80;99.90;;;;;;5028349;28;20359;-76
2022/11/15 11:38:20;;;;;;;16.10;11.63;;;9.80;99.90;;;;;;5047424;28;20037;-76
2022/11/15 11:41:04;;;;;;;16.08;10.65;;;9.80;99.90;;;;;;5029107;28;20033;-76
2022/11/15 11:43:52;;;;;;;19.33;12.13;;;9.80;99.90;;;;;;5029660;28;20021;-76
2022/11/15 11:46:31;;;;;;;18.00;12.10;;;9.70;99.90;;;;;;5047343;28;20029;-77
2022/11/15 11:49:04;;;;;;;18.83;10.70;;;9.60;99.90;;;;;;5028808;28;20382;-76
2022/11/15 11:51:42;;;;;;;19.33;12.52;;;9.60;99.90;;;;;;5029263;28;20021;-76
2022/11/15 11:54:22;;;;;;;15.75;10.77;;;9.60;99.90;;;;;;5046812;28;20029;-77
2022/11/15 11:56:49;;;;;;;20.40;11.68;;;9.50;99.90;;;;;;5029121;28;20029;-77
2022/11/15 11:59:25;;;;;;;15.95;11.07;;;9.50;99.90;;;;;;5046735;28;20028;-76
2022/11/15 12:01:51;;;;;;;19.25;12.68;;;9.50;99.90;;;;;;5029412;28;20029;-76
2022/11/15 12:04:22;;;;;;;;;;;9.40;99.90;;;;;;5047625;28;20103;-76
2022/11/15 12:07:07;;;;;;;22.33;14.23;;;9.50;99.90;;;;;;5029234;28;19911;-76
2022/11/15 12:09:48;;;;;;;26.52;15.68;;;9.40;99.90;;;;;;5029156;28;20033;-76
2022/11/15 12:12:24;;;;;;;20.92;15.18;;;9.40;99.90;;;;;;5046808;28;20072;-76
2022/11/15 12:14:54;;;;;;;21.45;14.38;;;9.30;99.90;;;;;;5029473;28;20338;-76
2022/11/15 12:17:24;;;;;;;22.08;15.13;;;9.30;99.90;;;;;;5047559;28;20443;-76
2022/11/15 12:19:50;;;;;;;24.88;16.73;;;9.20;99.90;;;;;;5048425;28;20029;-77
2022/11/15 12:22:41;;;;;;;23.40;14.13;;;9.20;99.90;;;;;;5048847;28;20033;-76
2022/11/15 12:25:32;;;;;;;28.90;14.43;;;9.10;99.90;;;;;;5010587;28;20094;-76
2022/11/15 12:28:18;;;;;;;23.75;16.13;;;8.90;99.90;;;;;;5039256;28;20053;-76
2022/11/15 12:30:57;;;;;;;26.98;17.20;;;8.90;99.90;;;;;;5069268;28;20036;-76
2022/11/15 12:33:36;;;;;;;33.83;22.88;;;8.90;99.90;;;;;;5049548;28;20036;-76
2022/11/15 12:36:39;;;;;;;36.80;20.25;;;8.80;99.90;;;;;;5068413;28;20028;-76
2022/11/15 12:39:09;;;;;;;39.83;23.98;;;8.60;99.90;;;;;;5067169;28;20123;-76
2022/11/15 12:41:37;;;;;;;42.60;29.73;;;8.40;99.90;;;;;;5052165;28;20051;-76
2022/11/15 12:44:04;;;;;;;47.83;32.20;;;8.50;99.90;;;;;;5070089;28;20098;-76
2022/11/15 12:46:29;;;;;;;39.67;19.52;;;8.40;99.90;;;;;;5049133;28;20067;-76
2022/11/15 12:48:58;;;;;;;;;;;8.50;99.90;;;;;;5048904;28;20056;-76
2022/11/15 12:51:46;;;;;;;23.42;16.42;;;8.50;99.90;;;;;;5048415;28;20006;-77
2022/11/15 12:54:21;;;;;;;57.30;35.08;;;8.50;99.90;;;;;;5042158;28;20036;-76
2022/11/15 12:57:27;;;;;;;29.55;18.92;;;8.60;99.90;;;;;;5048640;28;20496;-76
2022/11/15 13:00:03;;;;;;;23.00;14.50;;;8.60;99.90;;;;;;5051210;28;20559;-76
2022/11/15 13:02:34;;;;;;;29.30;17.70;;;8.50;99.90;;;;;;5051749;28;20020;-76
2022/11/15 13:05:15;;;;;;;23.92;16.40;;;8.50;99.90;;;;;;5069950;28;20032;-77
2022/11/15 13:07:41;;;;;;;30.00;18.08;;;8.50;99.90;;;;;;5052265;28;20031;-76
2022/11/15 13:10:09;;;;;;;;;;;8.40;99.90;;;;;;5053175;28;20052;-76
2022/11/15 13:12:38;;;;;;;25.35;17.58;;;8.30;99.90;;;;;;5051907;28;19923;-76
2022/11/15 13:15:13;;;;;;;29.35;17.48;;;8.30;99.90;;;;;;5070210;28;20027;-77
2022/11/15 13:17:47;;;;;;;28.02;18.55;;;8.40;99.90;;;;;;5052104;28;20115;-76
2022/11/15 13:20:15;;;;;;;34.10;19.52;;;8.40;99.90;;;;;;5052348;28;20048;-76
2022/11/15 13:23:11;;;;;;;27.50;19.05;;;8.40;99.90;;;;;;5069731;28;20032;-76
2022/11/15 13:26:05;;;;;;;30.90;20.20;;;8.30;99.90;;;;;;5070366;28;20053;-76
2022/11/15 13:28:36;;;;;;;30.10;20.67;;;8.20;99.90;;;;;;5056968;28;20049;-75